Time;durP1;ratioP1;P1;durP2;ratioP2;P2;SDS_P1;SDS_P2;PMS_P1;PMS_P2;Temp;Humidity;BMP_temperature;BMP_pressure;BME280_temperature;BME280_humidity;BME280_pressure;Samples;Min_cycle;Max_cycle;Signal;HPM_P1;HPM_P2
2022/12/20 00:00:16;;;;;;;9.35;5.45;;;9.30;99.90;;;;;;5050920;28;20041;-68
2022/12/20 00:02:42;;;;;;;5.15;3.65;;;9.20;99.90;;;;;;5085357;28;20057;-68
2022/12/20 00:05:08;;;;;;;9.02;5.22;;;9.20;99.90;;;;;;5070577;28;20064;-68
2022/12/20 00:07:33;;;;;;;7.63;5.03;;;9.30;99.90;;;;;;5059018;28;20044;-68
2022/12/20 00:09:59;;;;;;;7.75;4.82;;;9.30;99.90;;;;;;5051136;28;20102;-70
2022/12/20 00:12:25;;;;;;;7.07;4.80;;;9.20;99.90;;;;;;5052900;28;20047;-68
2022/12/20 00:14:51;;;;;;;7.50;4.85;;;9.20;99.90;;;;;;5036986;28;20057;-68
2022/12/20 00:17:16;;;;;;;8.10;5.22;;;9.20;99.90;;;;;;5054074;28;20045;-68
2022/12/20 00:19:45;;;;;;;10.85;4.90;;;9.20;99.90;;;;;;5052326;28;20389;-68
2022/12/20 00:22:10;;;;;;;8.10;4.95;;;9.20;99.90;;;;;;5050062;28;20049;-68
2022/12/20 00:24:36;;;;;;;7.13;4.68;;;9.10;99.90;;;;;;5068246;28;20045;-69
2022/12/20 00:27:02;;;;;;;8.02;4.95;;;9.10;99.90;;;;;;5054391;28;20098;-69
2022/12/20 00:29:27;;;;;;;6.28;4.35;;;9.10;99.90;;;;;;5059628;28;20103;-67
2022/12/20 00:31:53;;;;;;;8.52;4.90;;;9.10;99.90;;;;;;5047486;28;20128;-70
2022/12/20 00:34:19;;;;;;;8.75;4.30;;;9.10;99.90;;;;;;5048225;28;20045;-69
2022/12/20 00:36:45;;;;;;;5.82;4.07;;;9.10;99.90;;;;;;5050587;28;20059;-69
2022/12/20 00:39:11;;;;;;;8.45;4.28;;;9.10;99.90;;;;;;5050570;28;20045;-69
2022/12/20 00:41:37;;;;;;;7.57;4.53;;;9.10;99.90;;;;;;5062323;28;20053;-69
2022/12/20 00:44:03;;;;;;;7.60;4.60;;;9.10;99.90;;;;;;5048714;28;20041;-69
2022/12/20 00:46:30;;;;;;;8.63;4.93;;;9.00;99.90;;;;;;5049748;28;20048;-69
2022/12/20 00:48:56;;;;;;;7.80;4.93;;;9.10;99.90;;;;;;5050547;28;21020;-70
2022/12/20 00:51:27;;;;;;;9.98;4.80;;;9.10;99.90;;;;;;5045279;28;20041;-69
2022/12/20 00:53:54;;;;;;;7.07;4.30;;;9.10;99.90;;;;;;5047543;28;20390;-69
2022/12/20 00:56:19;;;;;;;6.75;3.95;;;9.10;99.90;;;;;;5046404;28;20056;-69
2022/12/20 00:58:45;;;;;;;6.88;4.28;;;9.10;99.90;;;;;;5050200;28;20041;-69
2022/12/20 01:01:24;;;;;;;8.90;4.57;;;9.10;99.90;;;;;;5048027;28;20095;-69
2022/12/20 01:03:51;;;;;;;6.72;4.28;;;9.10;99.90;;;;;;5081288;28;20060;-69
2022/12/20 01:06:17;;;;;;;7.75;4.72;;;9.10;99.90;;;;;;5048060;28;20061;-69
2022/12/20 01:08:43;;;;;;;8.75;4.28;;;9.00;99.90;;;;;;5048925;28;20037;-69
2022/12/20 01:11:15;;;;;;;6.45;4.05;;;9.00;99.90;;;;;;5045992;28;20080;-71
2022/12/20 01:13:43;;;;;;;5.55;3.75;;;9.10;99.90;;;;;;5081410;28;20110;-69
2022/12/20 01:16:21;;;;;;;8.10;4.05;;;9.10;99.90;;;;;;5048306;28;20041;-71
2022/12/20 01:18:47;;;;;;;8.73;4.25;;;9.10;99.90;;;;;;5051045;28;20116;-70
2022/12/20 01:21:15;;;;;;;5.72;4.18;;;9.20;99.90;;;;;;5048434;28;20167;-69
2022/12/20 01:23:41;;;;;;;7.25;3.97;;;9.20;99.90;;;;;;5079742;28;20045;-69
2022/12/20 01:26:10;;;;;;;6.20;4.20;;;9.20;99.90;;;;;;5049134;28;20045;-69
2022/12/20 01:28:38;;;;;;;6.68;3.83;;;9.20;99.90;;;;;;5045866;28;20045;-69
2022/12/20 01:31:08;;;;;;;6.28;3.75;;;9.20;99.90;;;;;;5048491;28;20052;-69
2022/12/20 01:33:34;;;;;;;5.40;3.53;;;9.20;99.90;;;;;;5044516;28;20049;-69
2022/12/20 01:36:03;;;;;;;8.65;4.10;;;9.20;99.90;;;;;;5049388;28;20045;-69
2022/12/20 01:38:29;;;;;;;5.70;3.47;;;9.30;99.90;;;;;;5045578;28;20043;-69
2022/12/20 01:40:56;;;;;;;8.05;3.47;;;9.30;99.90;;;;;;5048479;28;20040;-71
2022/12/20 01:43:24;;;;;;;8.52;4.28;;;9.20;99.90;;;;;;5048406;28;20053;-69
2022/12/20 01:45:50;;;;;;;9.60;3.50;;;9.20;99.90;;;;;;5051082;28;20055;-69
2022/12/20 01:48:23;;;;;;;6.63;3.92;;;9.20;99.90;;;;;;5049152;28;20486;-69
2022/12/20 01:50:50;;;;;;;8.23;4.05;;;9.20;99.90;;;;;;5046421;28;20091;-69
2022/12/20 01:53:19;;;;;;;5.97;3.40;;;9.20;99.90;;;;;;5049340;28;20045;-67
2022/12/20 01:55:46;;;;;;;5.65;3.65;;;9.20;99.90;;;;;;5041919;28;20394;-69
2022/12/20 01:58:14;;;;;;;6.32;3.38;;;9.30;99.90;;;;;;5041193;28;20457;-68
2022/12/20 02:00:40;;;;;;;7.25;3.95;;;9.20;99.90;;;;;;5044217;28;20563;-68
2022/12/20 02:03:08;;;;;;;8.27;3.83;;;9.20;99.90;;;;;;5036132;28;20045;-69
2022/12/20 02:05:40;;;;;;;7.63;3.83;;;9.20;99.90;;;;;;5048958;28;20076;-68
2022/12/20 02:08:08;;;;;;;7.07;4.28;;;9.10;99.90;;;;;;5049264;28;20116;-68
2022/12/20 02:10:42;;;;;;;6.05;4.28;;;9.10;99.90;;;;;;5037769;28;20049;-68
2022/12/20 02:13:18;;;;;;;5.63;3.47;;;9.10;99.90;;;;;;5054950;28;20102;-68
2022/12/20 02:15:55;;;;;;;8.57;4.22;;;9.20;99.90;;;;;;5049147;28;20056;-68
2022/12/20 02:18:22;;;;;;;5.28;3.83;;;9.20;99.90;;;;;;5049243;28;20057;-68
2022/12/20 02:21:25;;;;;;;5.93;3.90;;;9.20;99.90;;;;;;5049194;28;20041;-68
2022/12/20 02:24:09;;;;;;;6.22;3.55;;;9.20;99.90;;;;;;5046556;28;20455;-68
2022/12/20 02:27:00;;;;;;;5.75;3.42;;;9.20;99.90;;;;;;5048654;28;20044;-68
2022/12/20 02:29:56;;;;;;;5.35;3.53;;;9.10;99.90;;;;;;5043733;28;20057;-68
2022/12/20 02:33:00;;;;;;;6.25;3.90;;;9.20;99.90;;;;;;5050389;28;20406;-68
2022/12/20 02:35:30;;;;;;;6.47;3.90;;;9.20;99.90;;;;;;5048263;28;20068;-68
2022/12/20 02:38:00;;;;;;;5.40;3.83;;;9.10;99.90;;;;;;5050504;28;20051;-68
2022/12/20 02:40:38;;;;;;;5.72;3.83;;;9.10;99.90;;;;;;5048282;28;20398;-68
2022/12/20 02:45:14;;;;;;;8.35;4.03;;;9.10;99.90;;;;;;5051326;28;20051;-68
2022/12/20 02:45:54;;;;;;;6.40;3.65;;;9.10;99.90;;;;;;5044520;28;20452;-68
2022/12/20 02:48:22;;;;;;;8.27;4.40;;;9.10;99.90;;;;;;5050014;28;20045;-69
2022/12/20 02:50:50;;;;;;;6.28;3.40;;;9.10;99.90;;;;;;5049999;28;20053;-68
2022/12/20 02:53:17;;;;;;;5.60;4.28;;;9.10;99.90;;;;;;5037388;28;20048;-68
2022/12/20 02:55:55;;;;;;;6.10;3.78;;;9.10;99.90;;;;;;5049345;28;20037;-68
2022/12/20 02:58:24;;;;;;;7.70;4.30;;;9.10;99.90;;;;;;5068614;28;20059;-68
2022/12/20 03:00:52;;;;;;;8.18;4.13;;;9.10;99.90;;;;;;5050285;28;20049;-67
2022/12/20 03:03:21;;;;;;;6.30;3.70;;;9.10;99.90;;;;;;5049720;28;20451;-67
2022/12/20 03:05:50;;;;;;;5.78;3.38;;;9.10;99.90;;;;;;5047603;28;20092;-68
2022/12/20 03:08:16;;;;;;;7.03;3.03;;;9.20;99.90;;;;;;5049098;28;20052;-67
2022/12/20 03:10:42;;;;;;;6.07;4.00;;;9.10;99.90;;;;;;5047698;28;20131;-69
2022/12/20 03:13:09;;;;;;;7.75;4.20;;;9.20;99.90;;;;;;5049791;28;20078;-67
2022/12/20 03:15:35;;;;;;;5.53;4.22;;;9.10;99.90;;;;;;5050362;28;20117;-67
2022/12/20 03:18:01;;;;;;;5.05;3.78;;;9.20;99.90;;;;;;5049936;28;20045;-67
2022/12/20 03:20:27;;;;;;;7.78;4.13;;;9.20;99.90;;;;;;5031870;28;20045;-71
2022/12/20 03:22:53;;;;;;;9.02;5.18;;;9.20;99.90;;;;;;5048687;28;20056;-67
2022/12/20 03:25:19;;;;;;;4.82;3.40;;;9.10;99.90;;;;;;5052028;28;20494;-67
2022/12/20 03:27:45;;;;;;;5.43;3.42;;;9.20;99.90;;;;;;5054472;28;20140;-67
2022/12/20 03:30:11;;;;;;;7.50;4.30;;;9.20;99.90;;;;;;5049868;28;20518;-68
2022/12/20 03:32:37;;;;;;;6.90;4.22;;;9.10;99.90;;;;;;5049121;28;20049;-68
2022/12/20 03:35:03;;;;;;;5.80;3.53;;;9.10;99.90;;;;;;5049754;28;20043;-68
2022/12/20 03:37:29;;;;;;;7.88;4.10;;;9.10;99.90;;;;;;5052687;28;20045;-69
2022/12/20 03:39:55;;;;;;;9.32;4.90;;;9.10;99.90;;;;;;5053107;28;20048;-69
2022/12/20 03:42:20;;;;;;;7.07;3.72;;;9.10;99.90;;;;;;5053259;28;20148;-68
2022/12/20 03:44:46;;;;;;;8.98;4.10;;;9.10;99.90;;;;;;5052871;28;20045;-68
2022/12/20 03:47:12;;;;;;;6.28;4.13;;;9.10;99.90;;;;;;5054255;28;20134;-68
2022/12/20 03:49:38;;;;;;;8.13;4.13;;;9.10;99.90;;;;;;5060183;28;20047;-70
2022/12/20 03:52:04;;;;;;;6.43;3.80;;;9.10;99.90;;;;;;5072601;28;20041;-69
2022/12/20 03:54:30;;;;;;;9.07;4.35;;;9.10;99.90;;;;;;5052882;28;20055;-71
2022/12/20 03:56:56;;;;;;;7.07;4.20;;;9.20;99.90;;;;;;5054889;28;20098;-69
2022/12/20 03:59:21;;;;;;;7.72;4.18;;;9.10;99.90;;;;;;5052840;28;20053;-69
2022/12/20 04:01:47;;;;;;;6.60;4.53;;;9.10;99.90;;;;;;5051637;28;20051;-68
2022/12/20 04:04:14;;;;;;;6.63;3.90;;;9.10;99.90;;;;;;5052653;28;20406;-69
2022/12/20 04:06:41;;;;;;;6.72;4.60;;;9.10;99.90;;;;;;5035057;28;20530;-69
2022/12/20 04:09:06;;;;;;;6.45;3.55;;;9.10;99.90;;;;;;5053610;28;20041;-68
2022/12/20 04:11:32;;;;;;;5.35;2.70;;;9.10;99.90;;;;;;5052512;28;20057;-70
2022/12/20 04:13:58;;;;;;;5.63;3.75;;;9.20;99.90;;;;;;5050907;28;20047;-69
2022/12/20 04:16:26;;;;;;;5.28;3.70;;;9.20;99.90;;;;;;5052604;28;20123;-68
2022/12/20 04:18:52;;;;;;;7.10;4.13;;;9.20;99.90;;;;;;5053179;28;20040;-69
2022/12/20 04:21:23;;;;;;;8.35;4.22;;;9.20;99.90;;;;;;5052440;28;20457;-68
2022/12/20 04:23:49;;;;;;;9.00;3.97;;;9.10;99.90;;;;;;5050677;28;20110;-69
2022/12/20 04:26:15;;;;;;;6.57;4.15;;;9.20;99.90;;;;;;5052347;28;20128;-68
2022/12/20 04:28:40;;;;;;;7.68;4.50;;;9.20;99.90;;;;;;5052482;28;20387;-69
2022/12/20 04:31:06;;;;;;;10.10;4.03;;;9.20;99.90;;;;;;5052612;28;20065;-69
2022/12/20 04:33:33;;;;;;;7.05;4.75;;;9.20;99.90;;;;;;5051056;28;20379;-69
2022/12/20 04:35:58;;;;;;;7.47;4.53;;;9.20;99.90;;;;;;5042274;28;20151;-68
2022/12/20 04:38:24;;;;;;;6.22;4.15;;;9.30;99.90;;;;;;5067877;28;20088;-68
2022/12/20 04:40:52;;;;;;;5.93;4.07;;;9.20;99.90;;;;;;5042912;28;20453;-69
2022/12/20 04:43:18;;;;;;;8.05;4.40;;;9.30;99.90;;;;;;5040340;28;20049;-69
2022/12/20 04:45:46;;;;;;;7.60;4.22;;;9.40;99.90;;;;;;5035883;28;20108;-69
2022/12/20 04:48:12;;;;;;;8.38;3.97;;;9.30;99.90;;;;;;5048789;28;20123;-69
2022/12/20 04:50:38;;;;;;;6.45;3.95;;;9.40;99.90;;;;;;5073135;28;20510;-69
2022/12/20 04:55:47;;;;;;;7.43;4.65;;;9.40;99.90;;;;;;5041757;28;20056;-69
2022/12/20 04:58:13;;;;;;;6.88;4.70;;;9.40;99.90;;;;;;5042547;28;20041;-69
2022/12/20 05:00:39;;;;;;;10.02;4.50;;;9.40;99.90;;;;;;5041180;28;20040;-70
2022/12/20 05:03:05;;;;;;;6.43;3.63;;;9.50;99.90;;;;;;5041145;28;20041;-69
2022/12/20 05:05:30;;;;;;;5.72;4.07;;;9.40;99.90;;;;;;5040326;28;20049;-68
2022/12/20 05:07:56;;;;;;;7.45;4.55;;;9.50;99.90;;;;;;5040966;28;20202;-68
2022/12/20 05:10:22;;;;;;;8.25;4.30;;;9.50;99.90;;;;;;5048598;28;20044;-69
2022/12/20 05:12:48;;;;;;;8.27;4.00;;;9.50;99.90;;;;;;5055433;28;20049;-70
2022/12/20 05:15:14;;;;;;;6.88;3.45;;;9.50;99.90;;;;;;5052406;28;20045;-68
2022/12/20 05:17:39;;;;;;;7.85;4.57;;;9.50;99.90;;;;;;5051368;28;20048;-69
2022/12/20 05:20:06;;;;;;;8.75;3.63;;;9.60;99.90;;;;;;5049898;28;20060;-69
2022/12/20 05:28:01;;;;;;;7.03;4.07;;;9.70;99.90;;;;;;5050483;28;20053;-69
2022/12/20 05:30:27;;;;;;;8.10;4.47;;;9.60;99.90;;;;;;5050082;28;20380;-68
2022/12/20 05:32:53;;;;;;;6.50;4.22;;;9.70;99.90;;;;;;5059255;28;20059;-68
2022/12/20 05:35:19;;;;;;;8.20;4.30;;;9.70;99.90;;;;;;5053536;28;20056;-68
2022/12/20 05:37:44;;;;;;;8.05;4.90;;;9.70;99.90;;;;;;5078187;28;20091;-70
2022/12/20 05:40:11;;;;;;;6.68;3.83;;;9.70;99.90;;;;;;5045631;28;20079;-69
2022/12/20 05:42:36;;;;;;;8.85;4.20;;;9.70;99.90;;;;;;5078331;28;20060;-68
2022/12/20 05:45:04;;;;;;;6.45;4.13;;;9.70;99.90;;;;;;5048897;28;20394;-68
2022/12/20 05:47:32;;;;;;;7.45;3.97;;;9.70;99.90;;;;;;5041563;28;20049;-68
2022/12/20 05:49:59;;;;;;;5.72;3.38;;;9.70;99.90;;;;;;5080741;28;20051;-68
2022/12/20 05:52:25;;;;;;;6.40;4.30;;;9.80;99.90;;;;;;5045641;28;20041;-68
2022/12/20 05:54:51;;;;;;;6.03;4.38;;;9.80;99.90;;;;;;5049624;28;20079;-68
2022/12/20 05:57:17;;;;;;;11.02;4.38;;;9.80;99.90;;;;;;5044926;28;20071;-69
2022/12/20 05:59:43;;;;;;;7.13;4.35;;;9.90;99.90;;;;;;5038195;28;20041;-68
2022/12/20 06:02:09;;;;;;;5.65;3.33;;;9.90;99.90;;;;;;5044426;28;20124;-67
2022/12/20 06:04:37;;;;;;;6.65;3.80;;;9.90;99.90;;;;;;5038941;28;20045;-67
2022/12/20 06:07:04;;;;;;;7.47;4.15;;;9.90;99.90;;;;;;5042421;28;20111;-68
2022/12/20 06:09:33;;;;;;;5.55;4.00;;;9.90;99.90;;;;;;5039178;28;20041;-68
2022/12/20 06:11:58;;;;;;;7.97;3.85;;;9.90;99.90;;;;;;5040545;28;20045;-67
2022/12/20 06:14:24;;;;;;;6.13;3.92;;;9.90;99.90;;;;;;5051939;28;20055;-67
2022/12/20 06:16:50;;;;;;;6.38;3.95;;;9.90;99.90;;;;;;5082627;28;20557;-69
2022/12/20 06:19:16;;;;;;;9.30;3.70;;;9.90;99.90;;;;;;5050313;28;20387;-67
2022/12/20 06:21:41;;;;;;;4.82;3.50;;;9.90;99.90;;;;;;5050430;28;20099;-67
2022/12/20 06:24:07;;;;;;;5.82;3.80;;;10.00;99.90;;;;;;5049437;28;20040;-68
2022/12/20 06:26:36;;;;;;;4.15;3.13;;;9.90;99.90;;;;;;5050274;28;20083;-67
2022/12/20 06:29:05;;;;;;;5.20;3.80;;;9.90;99.90;;;;;;5049867;28;20107;-68
2022/12/20 06:31:32;;;;;;;5.55;3.10;;;9.90;99.90;;;;;;5050153;28;20517;-67
2022/12/20 06:33:58;;;;;;;7.38;3.17;;;10.00;99.90;;;;;;5049611;28;20045;-67
2022/12/20 06:36:23;;;;;;;5.20;3.33;;;10.00;99.90;;;;;;5060510;28;20102;-67
2022/12/20 06:38:49;;;;;;;5.85;3.28;;;10.00;99.90;;;;;;5053269;28;20064;-67
2022/12/20 06:41:15;;;;;;;5.95;3.13;;;10.00;99.90;;;;;;5048530;28;20041;-68
2022/12/20 06:43:41;;;;;;;6.78;3.83;;;10.00;99.90;;;;;;5040035;28;20048;-67
2022/12/20 06:46:06;;;;;;;5.63;3.78;;;10.00;99.90;;;;;;5039312;28;20090;-67
2022/12/20 06:48:32;;;;;;;5.70;3.40;;;10.00;99.90;;;;;;5033723;28;20049;-67
2022/12/20 06:50:58;;;;;;;4.78;3.15;;;10.10;99.90;;;;;;5065141;28;20037;-68
2022/12/20 06:53:24;;;;;;;8.25;3.75;;;10.10;99.90;;;;;;5082819;28;20056;-68
2022/12/20 06:55:50;;;;;;;5.63;3.50;;;10.10;99.90;;;;;;5048721;28;20037;-68
2022/12/20 06:58:17;;;;;;;8.40;3.85;;;10.00;99.90;;;;;;5072944;28;20136;-68
2022/12/20 07:00:42;;;;;;;7.00;3.35;;;10.00;99.90;;;;;;5048674;28;20097;-68
2022/12/20 07:03:08;;;;;;;7.60;3.72;;;10.00;99.90;;;;;;5046989;28;20557;-68
2022/12/20 07:05:34;;;;;;;7.55;3.38;;;10.10;99.90;;;;;;5047722;28;20542;-68
2022/12/20 07:08:01;;;;;;;6.35;4.18;;;10.10;99.90;;;;;;5046613;28;20046;-68
2022/12/20 07:10:27;;;;;;;6.38;4.43;;;10.10;99.90;;;;;;5040718;28;20048;-68
2022/12/20 07:12:53;;;;;;;5.60;3.92;;;10.10;99.90;;;;;;5049893;28;20067;-68
2022/12/20 07:15:20;;;;;;;5.30;3.78;;;10.10;99.90;;;;;;5053257;28;20044;-68
2022/12/20 07:17:46;;;;;;;8.15;4.90;;;10.10;99.90;;;;;;5054834;28;20051;-67
2022/12/20 07:20:12;;;;;;;6.82;4.70;;;10.10;99.90;;;;;;5051840;28;20053;-67
2022/12/20 07:22:38;;;;;;;6.28;4.10;;;10.00;99.90;;;;;;5051663;28;20483;-68
2022/12/20 07:25:04;;;;;;;5.47;4.28;;;10.00;99.90;;;;;;5051152;28;20060;-69
2022/12/20 07:27:30;;;;;;;7.35;5.13;;;10.00;99.90;;;;;;5052609;28;20444;-68
2022/12/20 07:29:55;;;;;;;7.72;5.00;;;10.00;99.90;;;;;;5051395;28;20483;-68
2022/12/20 07:32:21;;;;;;;6.43;4.70;;;10.00;99.90;;;;;;5051672;28;20083;-68
2022/12/20 07:34:47;;;;;;;7.10;4.90;;;9.90;99.90;;;;;;5051677;28;20045;-68
2022/12/20 07:37:12;;;;;;;9.20;4.78;;;9.90;99.90;;;;;;5065100;28;20104;-68
2022/12/20 07:39:38;;;;;;;8.43;5.30;;;9.90;99.90;;;;;;5052801;28;20049;-68
2022/12/20 07:42:04;;;;;;;8.82;6.38;;;10.00;99.90;;;;;;5048515;28;20059;-66
2022/12/20 07:44:29;;;;;;;7.63;5.28;;;10.00;99.90;;;;;;5051708;28;20044;-68
2022/12/20 07:46:55;;;;;;;7.70;5.47;;;9.90;99.90;;;;;;5050017;28;20047;-68
2022/12/20 07:49:21;;;;;;;7.82;5.50;;;9.90;99.90;;;;;;5049513;28;20072;-67
2022/12/20 07:51:51;;;;;;;7.35;5.78;;;9.90;99.90;;;;;;5055964;28;20044;-67
2022/12/20 07:54:21;;;;;;;8.05;6.00;;;9.90;99.90;;;;;;5048922;28;20430;-67
2022/12/20 07:56:50;;;;;;;9.75;6.05;;;10.00;99.90;;;;;;5049957;28;20119;-67
2022/12/20 07:59:22;;;;;;;9.88;5.30;;;10.00;99.90;;;;;;5040761;28;20402;-67
2022/12/20 08:01:48;;;;;;;8.05;6.63;;;10.00;99.90;;;;;;5037941;28;20078;-67
2022/12/20 08:04:18;;;;;;;8.35;5.82;;;9.90;99.90;;;;;;5049397;28;20121;-68
2022/12/20 08:06:45;;;;;;;6.93;4.97;;;10.00;99.90;;;;;;5045758;28;20132;-72
2022/12/20 08:09:13;;;;;;;8.98;5.55;;;10.00;99.90;;;;;;5067425;28;20041;-70
2022/12/20 08:11:40;;;;;;;7.32;5.30;;;10.00;99.90;;;;;;5048477;28;20057;-69
2022/12/20 08:14:07;;;;;;;9.90;5.88;;;10.10;99.90;;;;;;5051911;28;20090;-67
2022/12/20 08:16:33;;;;;;;8.10;5.95;;;10.10;99.90;;;;;;5052532;28;20052;-68
2022/12/20 08:18:59;;;;;;;7.30;5.60;;;10.10;99.90;;;;;;5051621;28;20052;-67
2022/12/20 08:21:25;;;;;;;7.70;3.95;;;10.10;99.90;;;;;;5052818;28;20072;-68
2022/12/20 08:23:50;;;;;;;8.45;5.50;;;10.10;99.90;;;;;;5052681;28;20133;-68
2022/12/20 08:26:17;;;;;;;7.82;4.97;;;10.20;99.90;;;;;;5051280;28;20195;-68
2022/12/20 08:28:43;;;;;;;6.05;4.55;;;10.20;99.90;;;;;;5050492;28;20045;-68
2022/12/20 08:31:09;;;;;;;7.05;5.18;;;10.20;99.90;;;;;;5051764;28;20150;-71
2022/12/20 08:33:36;;;;;;;7.35;4.72;;;10.20;99.90;;;;;;5049247;28;20083;-69
2022/12/20 08:36:05;;;;;;;7.07;4.65;;;10.20;99.90;;;;;;5049025;28;20044;-69
2022/12/20 08:38:31;;;;;;;10.57;5.57;;;10.20;99.90;;;;;;5049232;28;20142;-68
2022/12/20 08:41:09;;;;;;;7.47;4.93;;;10.20;99.90;;;;;;5048914;28;20044;-69
2022/12/20 08:43:36;;;;;;;8.10;4.13;;;10.20;99.90;;;;;;5049884;28;20137;-69
2022/12/20 08:46:02;;;;;;;5.72;4.30;;;10.20;99.90;;;;;;5082398;28;20387;-69
2022/12/20 08:48:28;;;;;;;7.82;5.18;;;10.20;99.90;;;;;;5056449;28;20045;-68
2022/12/20 08:50:59;;;;;;;5.93;4.03;;;10.20;99.90;;;;;;5039382;28;20053;-68
2022/12/20 08:53:25;;;;;;;8.57;4.70;;;10.20;99.90;;;;;;5080463;28;20138;-64
2022/12/20 08:55:51;;;;;;;11.20;4.78;;;10.20;99.90;;;;;;5048988;28;20091;-69
2022/12/20 08:58:17;;;;;;;8.25;4.07;;;10.30;99.90;;;;;;5048671;28;20071;-68
2022/12/20 09:00:43;;;;;;;8.80;3.95;;;10.40;99.90;;;;;;5051154;28;20124;-69
2022/12/20 09:03:10;;;;;;;5.80;4.00;;;10.30;99.90;;;;;;5049767;28;20064;-67
2022/12/20 09:05:42;;;;;;;9.07;3.38;;;10.40;99.90;;;;;;5024044;28;20086;-68
2022/12/20 09:08:07;;;;;;;7.03;4.10;;;10.30;99.90;;;;;;5036996;28;20132;-69
2022/12/20 09:10:33;;;;;;;6.15;4.10;;;10.40;99.90;;;;;;5037738;28;20124;-68
2022/12/20 09:12:59;;;;;;;5.97;3.95;;;10.30;99.90;;;;;;5051940;28;20045;-67
2022/12/20 09:15:26;;;;;;;5.20;3.25;;;10.30;99.90;;;;;;5045482;28;20052;-68
2022/12/20 09:17:52;;;;;;;5.72;3.72;;;10.40;99.90;;;;;;5048541;28;20048;-68
2022/12/20 09:20:18;;;;;;;5.95;3.72;;;10.40;99.90;;;;;;5049438;28;20128;-70
2022/12/20 09:22:43;;;;;;;5.70;3.35;;;10.40;99.90;;;;;;5044665;28;20053;-72
2022/12/20 09:25:09;;;;;;;4.40;2.85;;;10.40;99.90;;;;;;5033860;28;20048;-70
2022/12/20 09:27:35;;;;;;;4.72;3.25;;;10.40;99.90;;;;;;5078663;28;20386;-71
2022/12/20 09:30:00;;;;;;;5.47;3.30;;;10.50;99.90;;;;;;5038589;28;20049;-71
2022/12/20 09:32:26;;;;;;;5.10;3.47;;;10.50;99.90;;;;;;5082900;28;20052;-70
2022/12/20 09:34:52;;;;;;;7.90;3.70;;;10.50;99.90;;;;;;5047148;28;20052;-71
2022/12/20 09:37:17;;;;;;;5.22;2.70;;;10.50;99.90;;;;;;5043454;28;20045;-71
2022/12/20 09:39:43;;;;;;;7.03;2.85;;;10.50;99.90;;;;;;5043565;28;20490;-71
2022/12/20 09:42:09;;;;;;;5.43;3.30;;;10.50;99.90;;;;;;5046400;28;20056;-70
2022/12/20 09:44:39;;;;;;;5.85;3.40;;;10.60;99.90;;;;;;5051901;28;20486;-71
2022/12/20 09:47:35;;;;;;;4.47;2.63;;;10.60;99.90;;;;;;5050053;28;20430;-71
2022/12/20 09:50:02;;;;;;;5.80;3.75;;;10.70;99.90;;;;;;5048292;28;20090;-70
2022/12/20 09:52:55;;;;;;;7.28;3.35;;;10.70;99.90;;;;;;5032453;28;20119;-71
2022/12/20 09:55:36;;;;;;;6.45;3.33;;;10.70;99.90;;;;;;5048433;28;20102;-69
2022/12/20 09:58:29;;;;;;;6.38;3.65;;;10.70;99.90;;;;;;5053596;28;20037;-69
2022/12/20 10:00:56;;;;;;;6.45;2.72;;;10.70;99.90;;;;;;5040905;28;20080;-69
2022/12/20 10:03:28;;;;;;;7.07;3.60;;;10.80;99.90;;;;;;5049723;28;20102;-71
2022/12/20 10:05:55;;;;;;;5.90;3.25;;;10.80;99.90;;;;;;5045675;28;20494;-68
2022/12/20 10:08:40;;;;;;;4.65;2.60;;;10.90;99.90;;;;;;5052908;28;20402;-70
2022/12/20 10:11:25;;;;;;;7.18;3.28;;;10.90;99.90;;;;;;5076903;28;20456;-69
2022/12/20 10:13:53;;;;;;;6.60;3.00;;;10.90;99.90;;;;;;5040045;28;20041;-70
2022/12/20 10:16:39;;;;;;;6.63;2.88;;;10.90;99.90;;;;;;5049184;28;20051;-74
2022/12/20 10:19:26;;;;;;;7.60;2.92;;;10.90;99.90;;;;;;5081933;28;20138;-70
2022/12/20 10:21:55;;;;;;;7.53;3.05;;;10.90;99.90;;;;;;5047317;28;20081;-69
2022/12/20 10:24:29;;;;;;;5.40;3.38;;;10.90;99.90;;;;;;5078087;28;20044;-74
2022/12/20 10:26:56;;;;;;;4.85;2.80;;;10.80;99.90;;;;;;5041090;28;20119;-68
2022/12/20 10:29:22;;;;;;;6.00;3.15;;;10.80;99.90;;;;;;5037341;28;20093;-73
2022/12/20 10:31:53;;;;;;;6.07;2.55;;;10.90;99.90;;;;;;5045248;28;20045;-67
2022/12/20 10:34:19;;;;;;;4.90;3.10;;;10.90;99.90;;;;;;5045621;28;20070;-68
2022/12/20 10:36:45;;;;;;;8.18;3.17;;;10.90;99.90;;;;;;5048302;28;20498;-68
2022/12/20 10:39:10;;;;;;;6.47;3.05;;;10.90;99.90;;;;;;5058543;28;20043;-69
2022/12/20 10:41:39;;;;;;;4.65;2.90;;;10.90;99.90;;;;;;5051178;28;20037;-69
2022/12/20 10:44:15;;;;;;;4.82;2.80;;;10.90;99.90;;;;;;5064596;28;20053;-69
2022/12/20 10:46:47;;;;;;;4.88;2.90;;;10.90;99.90;;;;;;5035926;28;20084;-69
2022/12/20 10:49:35;;;;;;;5.15;3.17;;;10.90;99.90;;;;;;5084485;28;20436;-67
2022/12/20 10:52:07;;;;;;;7.20;3.05;;;10.90;99.90;;;;;;5050336;28;20465;-69
2022/12/20 10:54:42;;;;;;;6.18;2.90;;;10.90;99.90;;;;;;5036121;28;20064;-68
2022/12/20 10:57:22;;;;;;;;;;;10.90;99.90;;;;;;5043338;28;20052;-69
2022/12/20 10:59:59;;;;;;;4.35;2.85;;;10.90;99.90;;;;;;5050542;28;20396;-71
2022/12/20 11:02:39;;;;;;;3.58;2.67;;;10.90;99.90;;;;;;5052903;28;20128;-69
2022/12/20 11:05:11;;;;;;;6.88;2.72;;;10.90;99.90;;;;;;5047677;28;20081;-69
2022/12/20 11:07:58;;;;;;;6.53;3.15;;;11.00;99.90;;;;;;5051379;28;20041;-69
2022/12/20 11:10:26;;;;;;;5.45;3.00;;;11.00;99.90;;;;;;5041638;28;20190;-68
2022/12/20 11:13:01;;;;;;;5.45;3.35;;;11.00;99.90;;;;;;5081979;28;20045;-68
2022/12/20 11:15:29;;;;;;;6.97;3.38;;;10.90;99.90;;;;;;5055342;28;20037;-68
2022/12/20 11:18:25;;;;;;;8.82;3.35;;;10.90;99.90;;;;;;5047603;28;20494;-68
2022/12/20 11:21:34;;;;;;;6.47;3.55;;;10.90;99.90;;;;;;5043652;28;20041;-69
2022/12/20 11:24:11;;;;;;;8.52;3.38;;;10.80;99.90;;;;;;5025627;28;20048;-69
2022/12/20 11:26:55;;;;;;;8.15;3.38;;;10.80;99.90;;;;;;5045678;28;20052;-69
2022/12/20 11:29:39;;;;;;;8.80;3.90;;;10.80;99.90;;;;;;5042755;28;20411;-68
2022/12/20 11:32:23;;;;;;;5.35;3.20;;;10.80;99.90;;;;;;5044515;28;20092;-69
2022/12/20 11:35:13;;;;;;;6.50;3.33;;;10.70;99.90;;;;;;5055688;28;20048;-68
2022/12/20 11:37:53;;;;;;;10.32;3.90;;;10.70;99.90;;;;;;5035208;28;20062;-69
2022/12/20 11:40:26;;;;;;;5.93;3.05;;;10.70;99.90;;;;;;5080037;28;20061;-70
2022/12/20 11:43:20;;;;;;;5.63;3.40;;;10.70;99.90;;;;;;5035251;28;20053;-68
2022/12/20 11:46:05;;;;;;;5.28;3.40;;;10.70;99.90;;;;;;5048901;28;20376;-68
2022/12/20 11:48:47;;;;;;;8.05;3.20;;;10.70;99.90;;;;;;5080342;28;20052;-69
2022/12/20 11:51:23;;;;;;;7.03;3.70;;;10.70;99.90;;;;;;5074189;28;20075;-68
2022/12/20 11:54:20;;;;;;;6.75;3.15;;;10.70;99.90;;;;;;5040056;28;20048;-68
2022/12/20 11:56:50;;;;;;;7.53;3.28;;;10.70;99.90;;;;;;5039654;28;20068;-68
2022/12/20 11:59:35;;;;;;;5.35;3.72;;;10.60;99.90;;;;;;5035512;28;20045;-69
2022/12/20 12:02:29;;;;;;;8.10;3.25;;;10.70;99.90;;;;;;5044296;28;20045;-69
2022/12/20 12:05:05;;;;;;;5.93;3.58;;;10.60;99.90;;;;;;5047568;28;20497;-68
2022/12/20 12:07:35;;;;;;;7.13;3.75;;;10.60;99.90;;;;;;5041086;28;20041;-68
2022/12/20 12:10:20;;;;;;;5.75;3.58;;;10.60;99.90;;;;;;5033994;28;20034;-68
2022/12/20 12:12:58;;;;;;;8.30;3.70;;;10.60;99.90;;;;;;5080676;28;20091;-68
2022/12/20 12:15:50;;;;;;;5.90;3.63;;;10.50;99.90;;;;;;5052687;28;20049;-68
2022/12/20 12:18:42;;;;;;;6.57;3.72;;;10.60;99.90;;;;;;5050260;28;20059;-67
2022/12/20 12:21:18;;;;;;;6.43;3.35;;;10.50;99.90;;;;;;5049908;28;20067;-67
2022/12/20 12:23:51;;;;;;;6.82;3.80;;;10.50;99.90;;;;;;5052163;28;20045;-68
2022/12/20 12:26:25;;;;;;;5.25;3.90;;;10.50;99.90;;;;;;5051925;28;20437;-70
2022/12/20 12:29:15;;;;;;;5.03;3.33;;;10.50;99.90;;;;;;5050057;28;20065;-68
2022/12/20 12:31:53;;;;;;;7.05;4.13;;;10.50;99.90;;;;;;5052516;28;20056;-74
2022/12/20 12:34:49;;;;;;;6.88;3.83;;;10.50;99.90;;;;;;5048167;28;20057;-68
2022/12/20 12:37:33;;;;;;;6.65;4.07;;;10.50;99.90;;;;;;5051899;28;20509;-68
2022/12/20 12:40:20;;;;;;;5.80;3.83;;;10.50;99.90;;;;;;5050923;28;20052;-68
2022/12/20 12:43:20;;;;;;;7.15;4.15;;;10.50;99.90;;;;;;5051008;28;20049;-68
2022/12/20 12:45:57;;;;;;;7.70;4.10;;;10.50;99.90;;;;;;5047787;28;20051;-69
2022/12/20 12:48:38;;;;;;;5.72;4.03;;;10.50;99.90;;;;;;5051897;28;20281;-68
2022/12/20 12:51:05;;;;;;;5.43;3.75;;;10.50;99.90;;;;;;5051272;28;20962;-68
2022/12/20 12:53:48;;;;;;;8.15;4.32;;;10.40;99.90;;;;;;5052352;28;20049;-68
2022/12/20 12:56:29;;;;;;;6.25;4.53;;;10.40;99.90;;;;;;5051915;28;20504;-69
2022/12/20 12:59:08;;;;;;;5.80;4.03;;;10.40;99.90;;;;;;5052771;28;20402;-69
2022/12/20 13:02:02;;;;;;;5.78;4.13;;;10.40;99.90;;;;;;5044726;28;20083;-69
2022/12/20 13:04:48;;;;;;;7.38;4.57;;;10.40;99.90;;;;;;5049187;28;20460;-69
2022/12/20 13:07:31;;;;;;;6.95;4.82;;;10.40;99.90;;;;;;5050449;28;20053;-69
2022/12/20 13:09:58;;;;;;;6.80;4.97;;;10.40;99.90;;;;;;5051976;28;20091;-69
2022/12/20 13:12:39;;;;;;;6.18;4.43;;;10.40;99.90;;;;;;5051451;28;20045;-69
2022/12/20 13:15:20;;;;;;;6.63;4.50;;;10.40;99.90;;;;;;5050940;28;20127;-69
2022/12/20 13:17:58;;;;;;;6.35;3.60;;;10.30;99.90;;;;;;5051924;28;20056;-74